Blues — ZGAQ9 — position and weather

sailwx.info

Track history (hours):
 
Tides and Currents Weather Stations Pressure Air Temp Water Temp Dewpoint Dewpoint Depression Visibility Wind Speed Wind Dir Waves Ship Positions

Blues

Last reported at 2015-Apr-22 03:32 UTC. Time now 2015-Apr-22 03:52 UTC.
Position N 17°01' W 061°46'.

Type: Sailing vessel. MMSI: 319031700.

Date/timePositionNaut miles runAvg speedWind from/ knotsBaromVisibWave heightAir tempDewpointWater temp
2015-Apr-22 03:32N 17°01' W 061°46'0 0.0
2015-Apr-22 02:32N 17°01' W 061°46'0 0.0
2015-Apr-22 01:24N 17°01' W 061°46'0 0.0
2015-Apr-22 00:31N 17°01' W 061°46'0 0.0
2015-Apr-21 23:31N 17°01' W 061°46'0 0.0
2015-Apr-21 22:31N 17°01' W 061°46'0 0.0
2015-Apr-21 21:31N 17°01' W 061°46'0 0.0
2015-Apr-21 20:31N 17°01' W 061°46'0 0.0
2015-Apr-21 19:32N 17°01' W 061°46'0 0.0
2015-Apr-21 18:32N 17°01' W 061°46'0 0.0
2015-Apr-21 17:31N 17°01' W 061°46'0 0.0
2015-Apr-21 16:31N 17°01' W 061°46'0 0.0
2015-Apr-21 15:31N 17°01' W 061°46'0 0.0
2015-Apr-21 14:33N 17°01' W 061°46'0 0.0
2015-Apr-21 13:33N 17°01' W 061°46'0 0.0
2015-Apr-21 12:33N 17°01' W 061°46'0 0.0
2015-Apr-21 11:30N 17°01' W 061°46'0 0.0
2015-Apr-21 10:33N 17°01' W 061°46'0 0.0
2015-Apr-21 09:33N 17°01' W 061°46'0 0.0
2015-Apr-21 08:33N 17°01' W 061°46'0 0.0
2015-Apr-21 07:33N 17°01' W 061°46'0 0.0
2015-Apr-21 06:32N 17°01' W 061°46'0 0.0
2015-Apr-21 05:29N 17°01' W 061°46'0 0.0
2015-Apr-21 04:32N 17°01' W 061°46'0 0.0
2015-Apr-21 03:32N 17°01' W 061°46'0 0.0
2015-Apr-21 02:29N 17°01' W 061°46'0 0.0
2015-Apr-21 01:26N 17°01' W 061°46'0 0.0
2015-Apr-21 00:32N 17°01' W 061°46'0 0.0
2015-Apr-20 23:32N 17°01' W 061°46'0 0.0
2015-Apr-20 22:32N 17°01' W 061°46'  
2015-Apr-18 16:32N 17°01' W 061°46'0 0.0
2015-Apr-18 15:32N 17°01' W 061°46'0 0.0
2015-Apr-18 14:32N 17°01' W 061°46'  
2015-Apr-14 19:28N 17°01' W 061°46'4 4.0
2015-Apr-14 18:32N 17°01' W 061°50'0 0.1
2015-Apr-14 17:33N 17°01' W 061°50'0 0.0
2015-Apr-14 16:33N 17°01' W 061°50'0 0.0
2015-Apr-14 15:29N 17°01' W 061°50'1 1.3
2015-Apr-14 14:34N 17°00' W 061°49'3 2.7
2015-Apr-14 13:31N 17°01' W 061°46'  
Track history (hours):
 
Tides and Currents Weather Stations Pressure Air Temp Water Temp Dewpoint Dewpoint Depression Visibility Wind Speed Wind Dir Waves Ship Positions

Blues

Last reported at 2015-Apr-22 03:32 UTC. Time now 2015-Apr-22 03:52 UTC.
Position N 17°01' W 061°46'.

Type: Sailing vessel. MMSI: 319031700.

Date/timePositionNaut miles runAvg speedWind from/ knotsBaromVisibWave heightAir tempDewpointWater temp
2015-Apr-22 03:32N 17°01' W 061°46'0 0.0
2015-Apr-22 02:32N 17°01' W 061°46'0 0.0
2015-Apr-22 01:24N 17°01' W 061°46'0 0.0
2015-Apr-22 00:31N 17°01' W 061°46'0 0.0
2015-Apr-21 23:31N 17°01' W 061°46'0 0.0
2015-Apr-21 22:31N 17°01' W 061°46'0 0.0
2015-Apr-21 21:31N 17°01' W 061°46'0 0.0
2015-Apr-21 20:31N 17°01' W 061°46'0 0.0
2015-Apr-21 19:32N 17°01' W 061°46'0 0.0
2015-Apr-21 18:32N 17°01' W 061°46'0 0.0
2015-Apr-21 17:31N 17°01' W 061°46'0 0.0
2015-Apr-21 16:31N 17°01' W 061°46'0 0.0
2015-Apr-21 15:31N 17°01' W 061°46'0 0.0
2015-Apr-21 14:33N 17°01' W 061°46'0 0.0
2015-Apr-21 13:33N 17°01' W 061°46'0 0.0
2015-Apr-21 12:33N 17°01' W 061°46'0 0.0
2015-Apr-21 11:30N 17°01' W 061°46'0 0.0
2015-Apr-21 10:33N 17°01' W 061°46'0 0.0
2015-Apr-21 09:33N 17°01' W 061°46'0 0.0
2015-Apr-21 08:33N 17°01' W 061°46'0 0.0
2015-Apr-21 07:33N 17°01' W 061°46'0 0.0
2015-Apr-21 06:32N 17°01' W 061°46'0 0.0
2015-Apr-21 05:29N 17°01' W 061°46'0 0.0
2015-Apr-21 04:32N 17°01' W 061°46'0 0.0
2015-Apr-21 03:32N 17°01' W 061°46'0 0.0
2015-Apr-21 02:29N 17°01' W 061°46'0 0.0
2015-Apr-21 01:26N 17°01' W 061°46'0 0.0
2015-Apr-21 00:32N 17°01' W 061°46'0 0.0
2015-Apr-20 23:32N 17°01' W 061°46'0 0.0
2015-Apr-20 22:32N 17°01' W 061°46'  
2015-Apr-18 16:32N 17°01' W 061°46'0 0.0
2015-Apr-18 15:32N 17°01' W 061°46'0 0.0
2015-Apr-18 14:32N 17°01' W 061°46'  
2015-Apr-14 19:28N 17°01' W 061°46'4 4.0
2015-Apr-14 18:32N 17°01' W 061°50'0 0.1
2015-Apr-14 17:33N 17°01' W 061°50'0 0.0
2015-Apr-14 16:33N 17°01' W 061°50'0 0.0
2015-Apr-14 15:29N 17°01' W 061°50'1 1.3
2015-Apr-14 14:34N 17°00' W 061°49'3 2.7
2015-Apr-14 13:31N 17°01' W 061°46'  

Dump ship's entire track history